createdAt,value
2023-05-24T00:00:06.507Z,63.86
2023-05-24T00:02:33.713Z,63.51
2023-05-24T00:05:01.520Z,63.23
2023-05-24T00:07:31.967Z,66.46
2023-05-24T00:09:59.047Z,64.53
2023-05-24T00:12:26.175Z,63.72
2023-05-24T00:14:53.205Z,63.23
2023-05-24T00:17:20.354Z,63.18
2023-05-24T00:19:47.493Z,65.59
2023-05-24T00:22:14.608Z,63.54
2023-05-24T00:24:41.727Z,63.04
2023-05-24T00:27:08.853Z,63.04
2023-05-24T00:29:36.033Z,62.84
2023-05-24T00:32:03.425Z,62.88
2023-05-24T00:34:30.601Z,62.64
2023-05-24T00:36:58.230Z,62.58
2023-05-24T00:39:25.261Z,62.28
2023-05-24T00:41:52.312Z,62.77
2023-05-24T00:44:19.375Z,61.56
2023-05-24T00:46:46.562Z,61.03
2023-05-24T00:49:14.641Z,60.68
2023-05-24T00:51:41.787Z,61.98
2023-05-24T00:54:08.996Z,61.30
2023-05-24T00:56:36.115Z,60.39
2023-05-24T00:59:03.418Z,60.41
2023-05-24T01:01:31.579Z,62.32
2023-05-24T01:03:59.866Z,60.85
2023-05-24T01:06:29.129Z,60.39
2023-05-24T01:09:23.132Z,60.29
2023-05-24T01:12:08.619Z,60.31
2023-05-24T01:14:45.381Z,60.73
2023-05-24T01:17:20.532Z,60.87
2023-05-24T01:20:00.397Z,60.89
2023-05-24T01:22:38.072Z,61.02
2023-05-24T01:25:06.178Z,60.63
2023-05-24T01:27:36.610Z,60.27
2023-05-24T01:30:05.012Z,60.14
2023-05-24T01:32:33.041Z,60.35
2023-05-24T01:35:00.137Z,60.04
2023-05-24T01:37:27.408Z,60.91
2023-05-24T01:39:54.921Z,60.12
2023-05-24T01:42:29.023Z,60.26
2023-05-24T01:45:15.944Z,60.73
2023-05-24T01:48:03.754Z,61.31
2023-05-24T01:50:46.028Z,61.12
2023-05-24T01:53:17.604Z,61.50
2023-05-24T01:55:48.488Z,62.48
2023-05-24T01:58:18.120Z,63.48
2023-05-24T02:00:46.065Z,63.44
2023-05-24T02:03:15.843Z,63.20
2023-05-24T02:05:44.687Z,63.58
2023-05-24T02:08:13.217Z,65.13
2023-05-24T02:10:41.284Z,64.41
2023-05-24T02:13:09.387Z,64.24
2023-05-24T02:15:36.539Z,63.50
2023-05-24T02:18:04.453Z,63.81
2023-05-24T02:20:31.766Z,64.31
2023-05-24T02:22:59.034Z,64.53
2023-05-24T02:25:26.339Z,64.87
2023-05-24T02:27:53.466Z,64.81
2023-05-24T02:30:21.043Z,65.21
2023-05-24T02:32:48.127Z,65.43
2023-05-24T02:35:15.217Z,65.33
2023-05-24T02:37:42.476Z,65.67
2023-05-24T02:40:10.361Z,68.29
2023-05-24T02:42:37.419Z,66.80
2023-05-24T02:45:05.146Z,66.30
2023-05-24T02:47:32.204Z,66.70
2023-05-24T02:49:59.253Z,67.44
2023-05-24T02:52:27.099Z,68.17
2023-05-24T02:54:54.227Z,67.87
2023-05-24T02:57:21.302Z,68.17
2023-05-24T02:59:48.374Z,68.09
2023-05-24T03:02:15.787Z,69.36
2023-05-24T03:04:42.969Z,69.57
2023-05-24T03:07:11.056Z,69.92
2023-05-24T03:09:38.146Z,70.17
2023-05-24T03:12:06.128Z,70.92
2023-05-24T03:14:33.237Z,71.41
2023-05-24T03:17:00.271Z,71.57
2023-05-24T03:19:27.319Z,71.56
2023-05-24T03:21:54.455Z,72.39
2023-05-24T03:24:21.862Z,73.04
2023-05-24T03:26:49.121Z,72.97
2023-05-24T03:29:16.339Z,73.19
2023-05-24T03:31:43.526Z,73.28
2023-05-24T03:34:10.890Z,73.62
2023-05-24T03:36:37.963Z,73.76
2023-05-24T03:39:05.121Z,73.77
2023-05-24T03:41:32.211Z,73.89
2023-05-24T03:43:59.942Z,74.04
2023-05-24T03:46:27.165Z,74.99
2023-05-24T03:48:54.366Z,74.86
2023-05-24T03:51:23.899Z,74.63
2023-05-24T03:53:50.922Z,74.76
2023-05-24T03:56:18.072Z,75.23
2023-05-24T03:58:45.327Z,74.74
2023-05-24T04:01:21.974Z,75.04
2023-05-24T04:03:56.780Z,75.06
2023-05-24T04:06:29.359Z,74.86
2023-05-24T04:08:57.577Z,75.05
2023-05-24T04:11:28.684Z,74.99
2023-05-24T04:13:56.342Z,75.18
2023-05-24T04:16:26.578Z,75.23
2023-05-24T04:18:55.804Z,75.78
2023-05-24T04:21:23.492Z,75.76
2023-05-24T04:23:50.730Z,75.71
2023-05-24T04:26:18.074Z,75.31
2023-05-24T04:28:47.142Z,75.17
2023-05-24T04:31:14.254Z,75.07
2023-05-24T04:33:41.866Z,75.72
2023-05-24T04:36:11.937Z,75.54
2023-05-24T04:38:40.104Z,75.65
2023-05-24T04:41:07.531Z,75.76
2023-05-24T04:43:35.990Z,75.42
2023-05-24T04:46:03.221Z,74.79
2023-05-24T04:48:30.802Z,74.36
2023-05-24T04:50:58.738Z,74.53
2023-05-24T04:53:26.676Z,74.24
2023-05-24T04:55:53.882Z,73.86
2023-05-24T04:58:21.261Z,73.53
2023-05-24T05:00:48.695Z,73.70
2023-05-24T05:03:16.445Z,73.80
2023-05-24T05:05:43.795Z,73.13
2023-05-24T05:08:10.845Z,72.85
2023-05-24T05:10:38.138Z,72.50
2023-05-24T05:13:05.273Z,72.82
2023-05-24T05:15:32.968Z,72.61
2023-05-24T05:18:00.667Z,72.44
2023-05-24T05:20:27.914Z,72.54
2023-05-24T05:22:55.337Z,72.58
2023-05-24T05:25:22.614Z,72.26
2023-05-24T05:27:49.726Z,72.22
2023-05-24T05:30:16.914Z,72.32
2023-05-24T05:32:44.330Z,72.48
2023-05-24T05:35:11.615Z,72.20
2023-05-24T05:37:38.706Z,72.05
2023-05-24T05:40:06.419Z,72.59
2023-05-24T05:42:33.521Z,72.00
2023-05-24T05:45:01.025Z,71.41
2023-05-24T05:47:28.241Z,71.91
2023-05-24T05:49:55.308Z,71.86
2023-05-24T05:52:22.410Z,72.03
2023-05-24T05:54:49.568Z,71.97
2023-05-24T05:57:16.825Z,72.06
2023-05-24T05:59:44.014Z,71.97
2023-05-24T06:02:13.252Z,72.22
2023-05-24T06:04:40.648Z,72.13
2023-05-24T06:07:07.986Z,72.88
2023-05-24T06:09:35.084Z,72.19
2023-05-24T06:12:02.234Z,70.47
2023-05-24T06:14:29.451Z,70.54
2023-05-24T06:16:58.090Z,65.70
2023-05-24T06:19:27.551Z,67.06
2023-05-24T06:21:54.606Z,61.74
2023-05-24T06:24:21.762Z,61.08
2023-05-24T06:26:50.943Z,60.02
2023-05-24T06:29:21.375Z,61.02
2023-05-24T06:31:49.759Z,61.51
2023-05-24T06:34:18.137Z,59.94
2023-05-24T06:36:47.820Z,59.69
2023-05-24T06:39:16.470Z,60.54
2023-05-24T06:41:44.856Z,61.88
2023-05-24T06:44:12.081Z,62.44
2023-05-24T06:46:39.889Z,63.23
2023-05-24T06:49:07.510Z,64.04
2023-05-24T06:51:34.923Z,65.19
2023-05-24T06:54:06.996Z,65.74
2023-05-24T06:56:36.407Z,66.34
2023-05-24T06:59:03.636Z,66.76
2023-05-24T07:01:31.241Z,67.19
2023-05-24T07:03:58.396Z,67.63
2023-05-24T07:06:25.576Z,68.81
2023-05-24T07:08:52.778Z,69.12
2023-05-24T07:11:20.220Z,69.23
2023-05-24T07:13:47.476Z,68.18
2023-05-24T07:16:14.720Z,67.12
2023-05-24T07:18:42.223Z,67.42
2023-05-24T07:21:09.402Z,66.61
2023-05-24T07:23:37.578Z,66.71
2023-05-24T07:26:05.393Z,66.79
2023-05-24T07:28:32.933Z,67.23
2023-05-24T07:31:00.163Z,66.65
2023-05-24T07:33:27.488Z,64.90
2023-05-24T07:35:55.230Z,64.35
2023-05-24T07:38:22.444Z,62.16
2023-05-24T07:40:49.673Z,60.78
2023-05-24T07:43:16.869Z,60.84
2023-05-24T07:45:44.407Z,61.04
2023-05-24T07:48:11.973Z,59.53
2023-05-24T07:50:39.315Z,58.88
2023-05-24T07:53:06.707Z,58.42
2023-05-24T07:55:34.062Z,59.14
2023-05-24T07:58:01.954Z,58.49
2023-05-24T08:00:34.306Z,58.63
2023-05-24T08:03:01.844Z,59.21
2023-05-24T08:05:29.665Z,60.05
2023-05-24T08:07:57.483Z,60.91
2023-05-24T08:10:26.183Z,61.05
2023-05-24T08:12:55.693Z,59.50
2023-05-24T08:15:23.623Z,58.98
2023-05-24T08:17:51.541Z,56.72
2023-05-24T08:20:19.499Z,56.56
2023-05-24T08:22:48.970Z,56.16
2023-05-24T08:25:16.741Z,55.33
2023-05-24T08:27:44.362Z,54.61
2023-05-24T08:30:14.100Z,54.35
2023-05-24T08:32:41.641Z,55.12
2023-05-24T08:35:19.220Z,55.54
2023-05-24T08:37:48.731Z,56.64
2023-05-24T08:40:16.898Z,57.46
2023-05-24T08:42:46.839Z,58.80
2023-05-24T08:45:16.165Z,58.67
2023-05-24T08:47:44.427Z,59.40
2023-05-24T08:50:14.325Z,60.06
2023-05-24T08:52:43.144Z,60.90
2023-05-24T08:55:12.531Z,60.09
2023-05-24T08:57:41.897Z,58.48
2023-05-24T09:00:13.503Z,58.36
2023-05-24T09:02:43.020Z,59.13
2023-05-24T09:05:13.233Z,58.96
2023-05-24T09:07:42.540Z,57.43
2023-05-24T09:10:11.566Z,56.95
2023-05-24T09:12:40.499Z,57.06
2023-05-24T09:15:09.462Z,57.20
2023-05-24T09:17:38.646Z,58.10
2023-05-24T09:20:11.354Z,57.46
2023-05-24T09:22:42.132Z,56.70
2023-05-24T09:25:11.794Z,57.00
2023-05-24T09:27:39.543Z,57.03
2023-05-24T09:30:13.200Z,57.02
2023-05-24T09:32:41.688Z,56.09
2023-05-24T09:35:10.974Z,55.89
2023-05-24T09:37:41.129Z,56.36
2023-05-24T09:40:19.483Z,56.34
2023-05-24T09:42:47.168Z,56.75
2023-05-24T09:45:14.945Z,56.78
2023-05-24T09:47:44.038Z,56.30
2023-05-24T09:50:18.231Z,55.89
2023-05-24T09:52:46.419Z,55.79
2023-05-24T09:55:18.963Z,54.94
2023-05-24T09:57:53.005Z,54.22
2023-05-24T10:00:24.653Z,54.44
2023-05-24T10:03:03.606Z,54.40
2023-05-24T10:05:31.723Z,55.10
2023-05-24T10:08:00.255Z,55.57
2023-05-24T10:10:29.898Z,55.70
2023-05-24T10:12:58.172Z,55.46
2023-05-24T10:15:26.858Z,54.65
2023-05-24T10:17:57.138Z,54.20
2023-05-24T10:20:25.775Z,53.62
2023-05-24T10:23:00.579Z,53.65
2023-05-24T10:25:29.707Z,53.97
2023-05-24T10:28:01.458Z,53.76
2023-05-24T10:30:38.016Z,53.72
2023-05-24T10:33:09.151Z,52.29
2023-05-24T10:35:38.736Z,51.73
2023-05-24T10:38:08.427Z,53.18
2023-05-24T10:40:42.067Z,53.84
2023-05-24T10:43:10.374Z,54.03
2023-05-24T10:45:39.692Z,53.34
2023-05-24T10:48:14.782Z,52.92
2023-05-24T10:50:44.340Z,53.22
2023-05-24T10:53:13.896Z,53.37
2023-05-24T10:56:01.383Z,53.23
2023-05-24T10:58:31.137Z,53.45
2023-05-24T11:00:58.777Z,53.39
2023-05-24T11:03:26.443Z,54.75
2023-05-24T11:05:55.708Z,53.86
2023-05-24T11:08:34.226Z,52.41
2023-05-24T11:11:19.025Z,52.36
2023-05-24T11:13:56.596Z,52.86
2023-05-24T11:16:34.925Z,53.17
2023-05-24T11:19:16.977Z,53.48
2023-05-24T11:21:47.523Z,52.82
2023-05-24T11:24:15.455Z,52.73
2023-05-24T11:26:42.873Z,53.27
2023-05-24T11:29:10.875Z,53.36
2023-05-24T11:31:43.212Z,53.86
2023-05-24T11:34:11.542Z,53.98
2023-05-24T11:36:38.677Z,54.19
2023-05-24T11:39:09.720Z,55.13
2023-05-24T11:41:38.578Z,55.04
2023-05-24T11:44:07.722Z,54.06
2023-05-24T11:46:34.825Z,53.85
2023-05-24T11:49:01.859Z,53.40
2023-05-24T11:51:31.098Z,53.88
2023-05-24T11:54:35.512Z,53.16
2023-05-24T11:57:05.566Z,53.11
2023-05-24T11:59:35.197Z,53.68
2023-05-24T12:02:07.716Z,53.43
2023-05-24T12:04:49.444Z,53.26
2023-05-24T12:07:18.371Z,53.60
2023-05-24T12:09:46.159Z,54.13
2023-05-24T12:12:13.804Z,54.18
2023-05-24T12:15:06.693Z,54.51
2023-05-24T12:17:34.176Z,53.70
2023-05-24T12:20:04.752Z,53.58
2023-05-24T12:22:33.039Z,53.40
2023-05-24T12:25:00.892Z,53.28
2023-05-24T12:27:29.276Z,52.79
2023-05-24T12:30:26.031Z,52.57
2023-05-24T12:32:58.496Z,51.85
2023-05-24T12:35:28.395Z,51.99
2023-05-24T12:38:00.878Z,51.92
2023-05-24T12:40:38.141Z,52.28
2023-05-24T12:46:00.907Z,51.28
2023-05-24T12:48:29.064Z,51.26
2023-05-24T12:50:57.613Z,51.62
2023-05-24T12:53:26.396Z,51.29
2023-05-24T12:56:05.625Z,51.19
2023-05-24T12:58:47.730Z,52.15
2023-05-24T13:01:27.163Z,51.80
2023-05-24T13:06:39.618Z,51.54
2023-05-24T13:11:38.725Z,51.90
2023-05-24T13:14:31.766Z,52.30
2023-05-24T13:16:59.534Z,52.09
2023-05-24T13:19:27.451Z,52.49
2023-05-24T13:21:54.505Z,52.23
2023-05-24T13:24:34.987Z,51.35
2023-05-24T13:27:48.305Z,51.00
2023-05-24T13:30:34.210Z,50.87
2023-05-24T13:33:06.531Z,51.99
2023-05-24T13:36:04.129Z,50.67
2023-05-24T13:38:47.383Z,50.63
2023-05-24T13:41:28.614Z,50.82
2023-05-24T13:44:36.857Z,50.33
2023-05-24T13:47:23.741Z,50.09
2023-05-24T13:50:01.879Z,50.62
2023-05-24T13:52:29.139Z,51.30
2023-05-24T13:54:59.332Z,51.04
2023-05-24T13:57:33.649Z,50.87
2023-05-24T14:00:11.518Z,50.82
2023-05-24T14:02:39.591Z,51.46
2023-05-24T14:05:25.850Z,50.54
2023-05-24T14:07:55.684Z,51.40
2023-05-24T14:10:22.834Z,51.23
2023-05-24T14:13:03.496Z,50.65
2023-05-24T14:15:37.506Z,50.63
2023-05-24T14:18:08.877Z,50.95
2023-05-24T14:20:38.486Z,50.81
2023-05-24T14:23:07.336Z,49.21
2023-05-24T14:25:34.830Z,49.75
2023-05-24T14:28:02.220Z,50.06
2023-05-24T14:30:32.678Z,50.20
2023-05-24T14:33:01.763Z,50.39
2023-05-24T14:35:29.279Z,49.80
2023-05-24T14:37:56.535Z,50.01
2023-05-24T14:40:23.848Z,49.99
2023-05-24T14:42:51.109Z,50.46
2023-05-24T14:45:20.621Z,50.30
2023-05-24T14:47:47.888Z,50.06
2023-05-24T14:50:15.114Z,49.22
2023-05-24T14:52:42.268Z,49.55
2023-05-24T14:55:10.056Z,49.91
2023-05-24T14:57:37.313Z,49.39
2023-05-24T15:00:05.277Z,49.69
2023-05-24T15:02:34.681Z,49.44
2023-05-24T15:05:02.406Z,49.37
2023-05-24T15:07:29.984Z,49.71
2023-05-24T15:09:57.352Z,50.52
2023-05-24T15:12:24.965Z,49.81
2023-05-24T15:14:52.934Z,49.84
2023-05-24T15:17:21.816Z,49.56
2023-05-24T15:19:49.669Z,49.23
2023-05-24T15:22:17.069Z,49.71
2023-05-24T15:24:44.305Z,49.49
2023-05-24T15:27:11.817Z,49.00
2023-05-24T15:29:39.309Z,49.33
2023-05-24T15:32:07.663Z,49.08
2023-05-24T15:34:34.798Z,48.92
2023-05-24T15:37:02.102Z,49.51
2023-05-24T15:39:29.654Z,48.53
2023-05-24T15:41:59.494Z,48.19
2023-05-24T15:44:26.808Z,48.37
2023-05-24T15:46:54.064Z,48.21
2023-05-24T15:49:23.641Z,47.07
2023-05-24T15:54:20.857Z,47.00
2023-05-24T15:56:50.073Z,47.19
2023-05-24T15:59:21.527Z,46.96
2023-05-24T16:01:48.863Z,47.13
2023-05-24T16:04:16.194Z,46.75
2023-05-24T16:06:43.513Z,47.00
2023-05-24T16:09:10.823Z,47.17
2023-05-24T16:11:40.773Z,46.95
2023-05-24T16:14:09.004Z,47.10
2023-05-24T16:16:36.886Z,47.83
2023-05-24T16:19:04.215Z,47.53
2023-05-24T16:21:31.576Z,46.47
2023-05-24T16:24:00.869Z,47.13
2023-05-24T16:26:32.813Z,46.55
2023-05-24T16:29:00.614Z,46.12
2023-05-24T16:31:28.244Z,46.01
2023-05-24T16:33:56.662Z,46.37
2023-05-24T16:36:27.819Z,47.32
2023-05-24T16:38:55.190Z,47.42
2023-05-24T16:41:22.702Z,47.07
2023-05-24T16:43:50.717Z,47.05
2023-05-24T16:46:19.003Z,47.23
2023-05-24T16:48:46.907Z,46.58
2023-05-24T16:51:14.285Z,47.24
2023-05-24T16:53:41.557Z,48.06
2023-05-24T16:56:09.790Z,48.35
2023-05-24T16:58:37.817Z,49.17
2023-05-24T17:01:05.928Z,49.76
2023-05-24T17:03:34.861Z,48.57
2023-05-24T17:06:04.094Z,48.24
2023-05-24T17:08:39.073Z,47.22
2023-05-24T17:11:07.828Z,46.74
2023-05-24T17:13:35.359Z,46.65
2023-05-24T17:16:04.230Z,46.82
2023-05-24T17:18:31.916Z,45.60
2023-05-24T17:21:01.872Z,46.33
2023-05-24T17:23:31.650Z,46.24
2023-05-24T17:26:00.386Z,46.38
2023-05-24T17:28:28.084Z,47.06
2023-05-24T17:30:57.736Z,47.57
2023-05-24T17:33:26.555Z,47.36
2023-05-24T17:35:56.872Z,47.40
2023-05-24T17:38:25.604Z,45.06
2023-05-24T17:40:57.361Z,45.34
2023-05-24T17:43:29.360Z,44.83
2023-05-24T17:46:04.418Z,44.30
2023-05-24T17:48:33.558Z,45.41
2023-05-24T17:51:02.796Z,44.85
2023-05-24T17:53:34.123Z,44.88
2023-05-24T17:56:02.789Z,44.64
2023-05-24T17:58:33.987Z,45.25
2023-05-24T18:01:01.287Z,45.46
2023-05-24T18:03:28.717Z,45.39
2023-05-24T18:05:56.734Z,45.71
2023-05-24T18:08:25.848Z,45.87
2023-05-24T18:10:53.411Z,45.92
2023-05-24T18:13:20.767Z,45.59
2023-05-24T18:15:48.808Z,45.87
2023-05-24T18:18:16.890Z,45.72
2023-05-24T18:20:44.719Z,45.53
2023-05-24T18:23:12.131Z,46.06
2023-05-24T18:25:39.327Z,46.62
2023-05-24T18:28:06.910Z,46.88
2023-05-24T18:30:34.854Z,47.08
2023-05-24T18:33:07.808Z,47.80
2023-05-24T18:35:36.168Z,48.37
2023-05-24T18:38:04.437Z,48.68
2023-05-24T18:40:31.632Z,48.70
2023-05-24T18:42:58.969Z,48.81
2023-05-24T18:45:26.135Z,49.73
2023-05-24T18:47:54.516Z,49.59
2023-05-24T18:50:23.641Z,50.22
2023-05-24T18:52:54.073Z,50.66
2023-05-24T18:55:23.515Z,51.03
2023-05-24T18:57:50.818Z,50.96
2023-05-24T19:00:22.921Z,51.27
2023-05-24T19:02:50.383Z,51.66
2023-05-24T19:05:17.636Z,50.93
2023-05-24T19:07:44.854Z,51.83
2023-05-24T19:10:12.275Z,52.60
2023-05-24T19:12:39.266Z,52.76
2023-05-24T19:15:07.921Z,52.82
2023-05-24T19:17:35.016Z,53.23
2023-05-24T19:20:02.881Z,53.54
2023-05-24T19:22:29.962Z,53.81
2023-05-24T19:24:57.573Z,53.79
2023-05-24T19:27:25.010Z,53.71
2023-05-24T19:29:52.171Z,54.08
2023-05-24T19:32:20.670Z,54.10
2023-05-24T19:34:47.850Z,53.49
2023-05-24T19:37:16.111Z,54.08
2023-05-24T19:39:43.153Z,54.33
2023-05-24T19:42:12.012Z,54.18
2023-05-24T19:44:39.147Z,54.52
2023-05-24T19:47:06.940Z,55.03
2023-05-24T19:49:34.187Z,55.08
2023-05-24T19:52:01.300Z,55.05
2023-05-24T19:54:28.811Z,55.06
2023-05-24T19:56:58.122Z,54.39
2023-05-24T19:59:25.322Z,54.45
2023-05-24T20:01:52.466Z,54.34
2023-05-24T20:04:19.774Z,54.35
2023-05-24T20:06:46.825Z,54.43
2023-05-24T20:09:18.981Z,54.63
2023-05-24T20:11:46.627Z,55.43
2023-05-24T20:14:13.833Z,57.55
2023-05-24T20:16:41.215Z,58.35
2023-05-24T20:19:08.377Z,60.00
2023-05-24T20:21:36.951Z,60.46
2023-05-24T20:24:04.140Z,61.27
2023-05-24T20:26:33.558Z,62.04
2023-05-24T20:29:00.781Z,62.73
2023-05-24T20:31:28.219Z,63.70
2023-05-24T20:33:55.478Z,65.20
2023-05-24T20:36:22.689Z,65.97
2023-05-24T20:38:50.507Z,66.04
2023-05-24T20:41:18.394Z,66.25
2023-05-24T20:43:45.607Z,66.83
2023-05-24T20:46:14.231Z,67.31
2023-05-24T20:48:42.517Z,67.00
2023-05-24T20:51:10.257Z,66.85
2023-05-24T20:53:38.190Z,67.79
2023-05-24T20:56:05.397Z,66.88
2023-05-24T20:58:32.515Z,66.87
2023-05-24T21:00:59.669Z,66.87
2023-05-24T21:03:27.265Z,67.92
2023-05-24T21:05:54.439Z,67.11
2023-05-24T21:08:21.609Z,67.22
2023-05-24T21:10:48.903Z,67.70
2023-05-24T21:13:16.045Z,67.84
2023-05-24T21:15:45.386Z,67.56
2023-05-24T21:18:12.804Z,67.46
2023-05-24T21:20:39.989Z,67.41
2023-05-24T21:23:07.293Z,68.12
2023-05-24T21:25:34.413Z,67.52
2023-05-24T21:28:02.016Z,67.40
2023-05-24T21:30:30.837Z,68.21
2023-05-24T21:32:58.632Z,67.61
2023-05-24T21:35:26.518Z,67.70
2023-05-24T21:37:53.595Z,67.75
2023-05-24T21:40:20.623Z,68.08
2023-05-24T21:42:47.649Z,68.36
2023-05-24T21:45:14.723Z,68.34
2023-05-24T21:47:42.990Z,68.83
2023-05-24T21:50:10.776Z,68.57
2023-05-24T21:52:37.853Z,68.46
2023-05-24T21:55:05.851Z,68.50
2023-05-24T21:57:33.075Z,68.69
2023-05-24T22:00:00.381Z,68.99
2023-05-24T22:02:27.610Z,69.49
2023-05-24T22:04:55.099Z,69.70
2023-05-24T22:07:22.212Z,70.10
2023-05-24T22:09:49.234Z,70.10
2023-05-24T22:12:16.390Z,69.96
2023-05-24T22:14:43.426Z,69.54
2023-05-24T22:17:11.564Z,69.63
2023-05-24T22:19:40.567Z,69.47
2023-05-24T22:22:09.273Z,69.84
2023-05-24T22:24:36.741Z,69.55
2023-05-24T22:27:04.207Z,68.97
2023-05-24T22:29:31.484Z,68.96
2023-05-24T22:31:58.564Z,68.94
2023-05-24T22:34:28.390Z,68.71
2023-05-24T22:36:55.976Z,67.50
2023-05-24T22:39:23.690Z,67.68
2023-05-24T22:41:52.210Z,67.91
2023-05-24T22:44:19.216Z,68.04
2023-05-24T22:46:50.130Z,67.36
2023-05-24T22:49:19.846Z,66.87
2023-05-24T22:51:48.613Z,66.27
2023-05-24T22:54:15.964Z,66.06
2023-05-24T22:56:43.933Z,65.95
2023-05-24T22:59:11.532Z,65.14
2023-05-24T23:01:38.806Z,65.27
2023-05-24T23:04:19.689Z,65.52
2023-05-24T23:06:49.488Z,64.91
2023-05-24T23:09:17.912Z,64.78
2023-05-24T23:11:46.427Z,64.09
2023-05-24T23:14:14.511Z,64.26
2023-05-24T23:16:46.166Z,64.50
2023-05-24T23:19:19.094Z,64.03
2023-05-24T23:21:46.433Z,63.79
2023-05-24T23:24:16.213Z,64.23
2023-05-24T23:26:43.293Z,63.64
2023-05-24T23:29:10.537Z,62.93
2023-05-24T23:31:37.888Z,63.08
2023-05-24T23:34:05.889Z,64.33
2023-05-24T23:36:33.358Z,63.78
2023-05-24T23:39:00.408Z,63.42
2023-05-24T23:41:27.562Z,63.53
2023-05-24T23:43:54.549Z,64.32
2023-05-24T23:46:21.690Z,64.27
2023-05-24T23:48:48.851Z,64.25
2023-05-24T23:51:16.098Z,64.55
2023-05-24T23:53:43.083Z,65.62
2023-05-24T23:56:10.027Z,65.18
2023-05-24T23:58:37.842Z,65.41
